sensor_id;sensor_type;location;lat;lon;timestamp;pressure;altitude;pressure_sealevel;temperature;humidity
37892;BME280;45797;47.466;9.486;2023-03-16T00:04:58;96097.75;;;4.26;56.56
37892;BME280;45797;47.466;9.486;2023-03-16T00:09:58;96098.03;;;4.20;56.69
37892;BME280;45797;47.466;9.486;2023-03-16T00:15:00;96093.81;;;4.17;56.86
37892;BME280;45797;47.466;9.486;2023-03-16T00:20:01;96098.22;;;4.15;56.24
37892;BME280;45797;47.466;9.486;2023-03-16T00:25:03;96089.72;;;4.12;56.82
37892;BME280;45797;47.466;9.486;2023-03-16T00:30:13;96090.78;;;4.08;56.95
37892;BME280;45797;47.466;9.486;2023-03-16T00:35:14;96079.59;;;4.06;57.01
37892;BME280;45797;47.466;9.486;2023-03-16T00:40:20;96078.75;;;4.05;56.89
37892;BME280;45797;47.466;9.486;2023-03-16T00:45:21;96071.06;;;4.04;57.12
37892;BME280;45797;47.466;9.486;2023-03-16T00:50:27;96072.88;;;4.01;57.15
37892;BME280;45797;47.466;9.486;2023-03-16T00:55:27;96079.06;;;3.97;57.24
37892;BME280;45797;47.466;9.486;2023-03-16T01:00:41;96065.56;;;3.91;57.34
37892;BME280;45797;47.466;9.486;2023-03-16T01:05:41;96063.88;;;3.90;58.03
37892;BME280;45797;47.466;9.486;2023-03-16T01:10:42;96061.47;;;3.85;57.98
37892;BME280;45797;47.466;9.486;2023-03-16T01:15:49;96046.69;;;3.87;58.14
37892;BME280;45797;47.466;9.486;2023-03-16T01:21:02;96041.84;;;3.80;57.94
37892;BME280;45797;47.466;9.486;2023-03-16T01:26:06;96042.69;;;3.80;57.73
37892;BME280;45797;47.466;9.486;2023-03-16T01:31:32;96049.09;;;3.71;57.70
37892;BME280;45797;47.466;9.486;2023-03-16T01:36:53;96047.44;;;3.69;57.66
37892;BME280;45797;47.466;9.486;2023-03-16T01:42:01;96050.84;;;3.71;58.36
37892;BME280;45797;47.466;9.486;2023-03-16T01:47:02;96039.09;;;3.62;58.55
37892;BME280;45797;47.466;9.486;2023-03-16T01:52:18;96042.66;;;3.60;58.71
37892;BME280;45797;47.466;9.486;2023-03-16T01:57:24;96043.56;;;3.59;58.71
37892;BME280;45797;47.466;9.486;2023-03-16T02:02:30;96041.09;;;3.56;58.55
37892;BME280;45797;47.466;9.486;2023-03-16T02:07:56;96035.38;;;3.48;58.65
37892;BME280;45797;47.466;9.486;2023-03-16T02:12:58;96034.41;;;3.50;59.40
37892;BME280;45797;47.466;9.486;2023-03-16T02:17:59;96033.69;;;3.47;58.85
37892;BME280;45797;47.466;9.486;2023-03-16T02:23:04;96024.38;;;3.42;59.17
37892;BME280;45797;47.466;9.486;2023-03-16T02:28:24;96036.50;;;3.42;59.39
37892;BME280;45797;47.466;9.486;2023-03-16T02:33:27;96031.34;;;3.40;59.13
37892;BME280;45797;47.466;9.486;2023-03-16T02:38:31;96023.53;;;3.42;59.18
37892;BME280;45797;47.466;9.486;2023-03-16T02:43:33;96031.41;;;3.39;59.51
37892;BME280;45797;47.466;9.486;2023-03-16T02:54:28;96034.13;;;3.36;59.21
37892;BME280;45797;47.466;9.486;2023-03-16T02:59:30;96035.09;;;3.33;59.44
37892;BME280;45797;47.466;9.486;2023-03-16T03:04:30;96034.31;;;3.31;59.68
37892;BME280;45797;47.466;9.486;2023-03-16T03:09:57;96032.88;;;3.24;59.18
37892;BME280;45797;47.466;9.486;2023-03-16T03:15:08;96021.78;;;3.21;59.28
37892;BME280;45797;47.466;9.486;2023-03-16T03:20:17;96026.13;;;3.20;59.95
37892;BME280;45797;47.466;9.486;2023-03-16T03:25:38;96026.38;;;3.14;59.53
37892;BME280;45797;47.466;9.486;2023-03-16T03:30:40;96017.72;;;3.15;59.50
37892;BME280;45797;47.466;9.486;2023-03-16T03:35:41;96003.09;;;3.14;60.14
37892;BME280;45797;47.466;9.486;2023-03-16T03:40:52;96014.44;;;3.10;59.62
37892;BME280;45797;47.466;9.486;2023-03-16T03:45:59;96016.19;;;3.09;59.92
37892;BME280;45797;47.466;9.486;2023-03-16T03:51:07;96004.22;;;3.07;59.96
37892;BME280;45797;47.466;9.486;2023-03-16T03:56:29;95991.47;;;3.02;60.14
37892;BME280;45797;47.466;9.486;2023-03-16T04:01:30;95992.31;;;3.03;60.42
37892;BME280;45797;47.466;9.486;2023-03-16T04:06:31;95994.19;;;2.99;60.46
37892;BME280;45797;47.466;9.486;2023-03-16T04:11:35;95997.63;;;3.00;60.51
37892;BME280;45797;47.466;9.486;2023-03-16T04:16:43;96002.13;;;2.95;60.18
37892;BME280;45797;47.466;9.486;2023-03-16T04:21:56;95999.56;;;2.95;60.51
37892;BME280;45797;47.466;9.486;2023-03-16T04:26:57;95993.47;;;2.96;60.38
37892;BME280;45797;47.466;9.486;2023-03-16T04:31:57;95985.72;;;2.96;60.35
37892;BME280;45797;47.466;9.486;2023-03-16T04:37:03;95988.22;;;2.97;60.39
37892;BME280;45797;47.466;9.486;2023-03-16T04:42:06;95979.72;;;2.94;60.46
37892;BME280;45797;47.466;9.486;2023-03-16T04:47:10;95971.09;;;2.95;60.60
37892;BME280;45797;47.466;9.486;2023-03-16T04:52:21;95967.84;;;2.90;60.52
37892;BME280;45797;47.466;9.486;2023-03-16T04:57:22;95957.50;;;2.90;61.03
37892;BME280;45797;47.466;9.486;2023-03-16T05:02:27;95951.47;;;2.89;61.21
37892;BME280;45797;47.466;9.486;2023-03-16T05:07:35;95957.50;;;2.90;61.11
37892;BME280;45797;47.466;9.486;2023-03-16T05:12:38;95953.34;;;2.85;61.21
37892;BME280;45797;47.466;9.486;2023-03-16T05:17:42;95951.69;;;2.84;60.79
37892;BME280;45797;47.466;9.486;2023-03-16T05:22:45;95947.44;;;2.82;60.92
37892;BME280;45797;47.466;9.486;2023-03-16T05:27:52;95950.81;;;2.84;61.15
37892;BME280;45797;47.466;9.486;2023-03-16T05:33:13;95943.13;;;2.82;60.77
37892;BME280;45797;47.466;9.486;2023-03-16T05:38:30;95950.22;;;2.77;61.26
37892;BME280;45797;47.466;9.486;2023-03-16T05:43:33;95946.50;;;2.84;61.04
37892;BME280;45797;47.466;9.486;2023-03-16T05:48:40;95943.84;;;2.86;61.09
37892;BME280;45797;47.466;9.486;2023-03-16T05:53:43;95943.66;;;2.91;61.48
37892;BME280;45797;47.466;9.486;2023-03-16T05:58:58;95941.63;;;2.99;61.01
37892;BME280;45797;47.466;9.486;2023-03-16T06:04:04;95935.28;;;3.06;60.81
37892;BME280;45797;47.466;9.486;2023-03-16T06:09:13;95934.94;;;3.15;60.51
37892;BME280;45797;47.466;9.486;2023-03-16T06:14:23;95929.47;;;3.21;60.91
37892;BME280;45797;47.466;9.486;2023-03-16T06:19:29;95934.88;;;3.37;60.29
37892;BME280;45797;47.466;9.486;2023-03-16T06:24:52;95936.91;;;3.51;60.02
37892;BME280;45797;47.466;9.486;2023-03-16T06:29:53;95946.44;;;3.69;60.30
37892;BME280;45797;47.466;9.486;2023-03-16T06:35:00;95947.34;;;3.88;60.09
37892;BME280;45797;47.466;9.486;2023-03-16T06:40:04;95949.13;;;4.07;59.87
37892;BME280;45797;47.466;9.486;2023-03-16T06:45:05;95951.91;;;4.22;59.70
37892;BME280;45797;47.466;9.486;2023-03-16T06:50:07;95953.75;;;4.39;59.48
37892;BME280;45797;47.466;9.486;2023-03-16T06:55:08;95960.88;;;4.53;59.26
37892;BME280;45797;47.466;9.486;2023-03-16T07:00:14;95954.94;;;4.70;59.11
37892;BME280;45797;47.466;9.486;2023-03-16T07:05:15;95962.94;;;4.84;59.08
37892;BME280;45797;47.466;9.486;2023-03-16T07:10:18;95957.84;;;5.00;58.71
37892;BME280;45797;47.466;9.486;2023-03-16T07:15:23;95953.38;;;5.21;58.65
37892;BME280;45797;47.466;9.486;2023-03-16T07:20:27;95957.75;;;5.37;58.33
37892;BME280;45797;47.466;9.486;2023-03-16T07:25:33;95956.28;;;5.49;57.86
37892;BME280;45797;47.466;9.486;2023-03-16T07:30:45;95949.25;;;5.68;57.72
37892;BME280;45797;47.466;9.486;2023-03-16T07:36:03;95951.94;;;5.84;57.51
37892;BME280;45797;47.466;9.486;2023-03-16T07:41:05;95960.97;;;5.94;57.89
37892;BME280;45797;47.466;9.486;2023-03-16T07:46:23;95972.28;;;6.11;57.38
37892;BME280;45797;47.466;9.486;2023-03-16T07:51:25;95976.44;;;6.30;56.98
37892;BME280;45797;47.466;9.486;2023-03-16T07:56:35;95977.63;;;6.41;57.30
37892;BME280;45797;47.466;9.486;2023-03-16T08:01:37;95977.63;;;6.41;57.73
37892;BME280;45797;47.466;9.486;2023-03-16T08:06:38;95980.75;;;6.47;57.12
37892;BME280;45797;47.466;9.486;2023-03-16T08:11:49;95990.34;;;6.47;57.29
37892;BME280;45797;47.466;9.486;2023-03-16T08:16:54;95982.16;;;6.37;57.84
37892;BME280;45797;47.466;9.486;2023-03-16T08:21:55;95980.06;;;6.44;57.91
37892;BME280;45797;47.466;9.486;2023-03-16T08:27:00;95989.50;;;6.62;57.46
37892;BME280;45797;47.466;9.486;2023-03-16T08:32:01;95998.56;;;6.71;57.30
37892;BME280;45797;47.466;9.486;2023-03-16T08:37:06;95986.41;;;6.71;57.03
37892;BME280;45797;47.466;9.486;2023-03-16T08:42:17;95976.84;;;6.87;57.09
37892;BME280;45797;47.466;9.486;2023-03-16T08:47:23;95971.25;;;7.11;56.88
37892;BME280;45797;47.466;9.486;2023-03-16T08:52:30;95975.25;;;7.16;57.04
37892;BME280;45797;47.466;9.486;2023-03-16T08:57:33;95977.75;;;7.34;56.44
37892;BME280;45797;47.466;9.486;2023-03-16T09:02:34;95966.81;;;7.43;56.04
37892;BME280;45797;47.466;9.486;2023-03-16T09:07:38;95967.53;;;7.61;56.33
37892;BME280;45797;47.466;9.486;2023-03-16T09:12:41;95972.97;;;7.86;56.04
37892;BME280;45797;47.466;9.486;2023-03-16T09:17:45;95975.09;;;8.10;55.62
37892;BME280;45797;47.466;9.486;2023-03-16T09:22:46;95973.41;;;8.23;55.71
37892;BME280;45797;47.466;9.486;2023-03-16T09:27:47;95959.88;;;8.46;55.37
37892;BME280;45797;47.466;9.486;2023-03-16T09:32:49;95958.75;;;8.65;54.90
37892;BME280;45797;47.466;9.486;2023-03-16T09:37:51;95948.94;;;8.82;54.84
37892;BME280;45797;47.466;9.486;2023-03-16T09:43:37;95942.44;;;9.02;54.58
37892;BME280;45797;47.466;9.486;2023-03-16T09:49:02;95929.78;;;9.23;54.38
37892;BME280;45797;47.466;9.486;2023-03-16T09:59:47;95924.41;;;9.39;54.56
37892;BME280;45797;47.466;9.486;2023-03-16T10:04:59;95910.66;;;9.62;53.77
37892;BME280;45797;47.466;9.486;2023-03-16T10:10:24;95909.81;;;9.74;53.83
37892;BME280;45797;47.466;9.486;2023-03-16T10:15:31;95896.97;;;9.71;53.70
37892;BME280;45797;47.466;9.486;2023-03-16T10:20:35;95904.81;;;9.84;53.22
37892;BME280;45797;47.466;9.486;2023-03-16T10:25:51;95896.47;;;10.05;53.25
37892;BME280;45797;47.466;9.486;2023-03-16T10:30:55;95879.44;;;10.24;53.16
37892;BME280;45797;47.466;9.486;2023-03-16T10:46:21;95871.31;;;10.40;52.80
37892;BME280;45797;47.466;9.486;2023-03-16T10:51:35;95881.56;;;10.56;52.21
37892;BME280;45797;47.466;9.486;2023-03-16T10:56:37;95886.84;;;10.43;52.79
37892;BME280;45797;47.466;9.486;2023-03-16T11:01:46;95882.13;;;10.36;52.74
37892;BME280;45797;47.466;9.486;2023-03-16T11:12:30;95882.63;;;10.41;52.95
37892;BME280;45797;47.466;9.486;2023-03-16T11:17:46;95869.19;;;10.58;53.07
37892;BME280;45797;47.466;9.486;2023-03-16T11:23:01;95852.03;;;10.91;52.30
37892;BME280;45797;47.466;9.486;2023-03-16T11:28:15;95853.34;;;11.20;51.61
37892;BME280;45797;47.466;9.486;2023-03-16T11:33:17;95855.72;;;11.23;51.67
37892;BME280;45797;47.466;9.486;2023-03-16T11:38:40;95854.47;;;11.29;51.66
37892;BME280;45797;47.466;9.486;2023-03-16T11:44:03;95851.06;;;11.51;51.52
37892;BME280;45797;47.466;9.486;2023-03-16T12:00:12;95829.50;;;12.16;50.99
37892;BME280;45797;47.466;9.486;2023-03-16T12:15:54;95800.41;;;13.05;49.38
37892;BME280;45797;47.466;9.486;2023-03-16T12:21:13;95782.13;;;13.36;49.27
37892;BME280;45797;47.466;9.486;2023-03-16T12:26:16;95786.13;;;13.51;49.47
37892;BME280;45797;47.466;9.486;2023-03-16T12:31:34;95794.81;;;13.72;49.12
37892;BME280;45797;47.466;9.486;2023-03-16T12:37:07;95793.72;;;13.96;48.66
37892;BME280;45797;47.466;9.486;2023-03-16T12:53:24;95789.81;;;14.30;48.02
37892;BME280;45797;47.466;9.486;2023-03-16T12:58:26;95776.50;;;14.53;47.63
37892;BME280;45797;47.466;9.486;2023-03-16T13:03:43;95766.53;;;14.85;47.12
37892;BME280;45797;47.466;9.486;2023-03-16T13:09:02;95768.63;;;15.21;46.88
37892;BME280;45797;47.466;9.486;2023-03-16T13:14:16;95770.56;;;15.38;46.06
37892;BME280;45797;47.466;9.486;2023-03-16T13:19:38;95760.44;;;15.24;45.99
37892;BME280;45797;47.466;9.486;2023-03-16T13:30:11;95761.53;;;15.50;45.58
37892;BME280;45797;47.466;9.486;2023-03-16T13:35:17;95750.22;;;15.87;45.05
37892;BME280;45797;47.466;9.486;2023-03-16T13:40:28;95753.63;;;16.07;45.21
37892;BME280;45797;47.466;9.486;2023-03-16T13:45:36;95758.56;;;16.19;45.17
37892;BME280;45797;47.466;9.486;2023-03-16T13:50:37;95749.44;;;16.41;44.64
37892;BME280;45797;47.466;9.486;2023-03-16T13:55:44;95745.13;;;16.40;44.48
37892;BME280;45797;47.466;9.486;2023-03-16T14:00:45;95750.34;;;16.22;44.84
37892;BME280;45797;47.466;9.486;2023-03-16T14:05:50;95737.25;;;16.48;44.43
37892;BME280;45797;47.466;9.486;2023-03-16T14:10:53;95730.63;;;17.07;43.81
37892;BME280;45797;47.466;9.486;2023-03-16T14:16:05;95733.75;;;17.47;42.81
37892;BME280;45797;47.466;9.486;2023-03-16T14:21:33;95732.06;;;17.63;43.02
37892;BME280;45797;47.466;9.486;2023-03-16T14:26:47;95723.00;;;17.92;42.52
37892;BME280;45797;47.466;9.486;2023-03-16T14:31:49;95714.16;;;18.17;41.96
37892;BME280;45797;47.466;9.486;2023-03-16T14:36:50;95727.69;;;18.06;42.08
37892;BME280;45797;47.466;9.486;2023-03-16T14:41:53;95709.75;;;17.92;42.22
37892;BME280;45797;47.466;9.486;2023-03-16T14:47:05;95706.97;;;18.02;42.41
37892;BME280;45797;47.466;9.486;2023-03-16T14:57:34;95710.34;;;18.12;41.88
37892;BME280;45797;47.466;9.486;2023-03-16T15:02:36;95714.28;;;18.50;41.09
37892;BME280;45797;47.466;9.486;2023-03-16T15:07:38;95714.88;;;18.36;41.40
37892;BME280;45797;47.466;9.486;2023-03-16T15:12:48;95721.06;;;18.02;41.28
37892;BME280;45797;47.466;9.486;2023-03-16T15:18:07;95706.53;;;18.14;41.30
37892;BME280;45797;47.466;9.486;2023-03-16T15:23:12;95699.22;;;18.59;40.16
37892;BME280;45797;47.466;9.486;2023-03-16T15:28:22;95697.22;;;18.61;40.64
37892;BME280;45797;47.466;9.486;2023-03-16T15:33:24;95685.63;;;18.62;40.12
37892;BME280;45797;47.466;9.486;2023-03-16T15:38:34;95692.56;;;18.54;40.06
37892;BME280;45797;47.466;9.486;2023-03-16T15:43:41;95691.91;;;18.52;40.05
37892;BME280;45797;47.466;9.486;2023-03-16T15:48:47;95688.50;;;18.68;39.32
37892;BME280;45797;47.466;9.486;2023-03-16T15:53:50;95681.47;;;18.51;39.58
37892;BME280;45797;47.466;9.486;2023-03-16T15:58:52;95685.47;;;18.63;39.26
37892;BME280;45797;47.466;9.486;2023-03-16T16:03:54;95680.72;;;18.67;38.67
37892;BME280;45797;47.466;9.486;2023-03-16T16:09:05;95671.78;;;19.00;38.62
37892;BME280;45797;47.466;9.486;2023-03-16T16:14:11;95676.56;;;19.21;38.29
37892;BME280;45797;47.466;9.486;2023-03-16T16:19:22;95680.56;;;19.25;38.25
37892;BME280;45797;47.466;9.486;2023-03-16T16:24:22;95678.41;;;19.37;38.21
37892;BME280;45797;47.466;9.486;2023-03-16T16:29:29;95676.56;;;19.46;37.49
37892;BME280;45797;47.466;9.486;2023-03-16T16:34:32;95690.50;;;19.31;38.02
37892;BME280;45797;47.466;9.486;2023-03-16T16:39:34;95683.22;;;18.93;38.27
37892;BME280;45797;47.466;9.486;2023-03-16T16:44:40;95688.91;;;18.39;39.56
37892;BME280;45797;47.466;9.486;2023-03-16T16:49:51;95687.00;;;17.89;40.47
37892;BME280;45797;47.466;9.486;2023-03-16T16:54:56;95684.06;;;17.40;41.04
37892;BME280;45797;47.466;9.486;2023-03-16T17:12:27;95706.53;;;15.46;44.04
37892;BME280;45797;47.466;9.486;2023-03-16T17:17:41;95718.09;;;14.96;44.43
37892;BME280;45797;47.466;9.486;2023-03-16T17:22:56;95716.16;;;14.50;45.12
37892;BME280;45797;47.466;9.486;2023-03-16T17:27:57;95706.00;;;14.05;46.00
37892;BME280;45797;47.466;9.486;2023-03-16T17:33:02;95708.22;;;13.69;46.37
37892;BME280;45797;47.466;9.486;2023-03-16T17:38:23;95702.31;;;13.26;46.81
37892;BME280;45797;47.466;9.486;2023-03-16T17:43:27;95705.31;;;13.00;47.23
37892;BME280;45797;47.466;9.486;2023-03-16T17:48:39;95707.84;;;12.70;47.36
37892;BME280;45797;47.466;9.486;2023-03-16T17:53:40;95708.88;;;12.46;47.76
37892;BME280;45797;47.466;9.486;2023-03-16T17:58:41;95702.72;;;12.25;47.75
37892;BME280;45797;47.466;9.486;2023-03-16T18:03:43;95695.59;;;12.05;47.76
37892;BME280;45797;47.466;9.486;2023-03-16T18:08:46;95697.06;;;11.86;47.87
37892;BME280;45797;47.466;9.486;2023-03-16T18:13:54;95690.34;;;11.71;47.95
37892;BME280;45797;47.466;9.486;2023-03-16T18:18:59;95693.94;;;11.59;48.34
37892;BME280;45797;47.466;9.486;2023-03-16T18:24:08;95699.19;;;11.48;48.00
37892;BME280;45797;47.466;9.486;2023-03-16T18:29:15;95696.66;;;11.35;48.09
37892;BME280;45797;47.466;9.486;2023-03-16T18:34:22;95703.09;;;11.20;48.36
37892;BME280;45797;47.466;9.486;2023-03-16T18:39:34;95701.50;;;11.06;48.38
37892;BME280;45797;47.466;9.486;2023-03-16T18:44:45;95699.22;;;10.90;48.42
37892;BME280;45797;47.466;9.486;2023-03-16T18:49:51;95696.19;;;10.83;48.42
37892;BME280;45797;47.466;9.486;2023-03-16T18:55:00;95695.41;;;10.70;48.65
37892;BME280;45797;47.466;9.486;2023-03-16T19:00:06;95704.44;;;10.55;49.04
37892;BME280;45797;47.466;9.486;2023-03-16T19:05:18;95696.97;;;10.38;49.07
37892;BME280;45797;47.466;9.486;2023-03-16T19:10:29;95698.22;;;10.32;48.95
37892;BME280;45797;47.466;9.486;2023-03-16T19:15:39;95693.59;;;10.24;49.23
37892;BME280;45797;47.466;9.486;2023-03-16T19:20:43;95691.59;;;10.15;49.46
37892;BME280;45797;47.466;9.486;2023-03-16T19:25:44;95683.66;;;10.04;48.78
37892;BME280;45797;47.466;9.486;2023-03-16T19:30:46;95679.19;;;9.93;49.68
37892;BME280;45797;47.466;9.486;2023-03-16T19:35:48;95675.44;;;9.85;49.40
37892;BME280;45797;47.466;9.486;2023-03-16T19:40:53;95665.56;;;9.77;49.43
37892;BME280;45797;47.466;9.486;2023-03-16T19:45:55;95670.06;;;9.62;50.38
37892;BME280;45797;47.466;9.486;2023-03-16T19:51:02;95665.50;;;9.53;50.42
37892;BME280;45797;47.466;9.486;2023-03-16T19:56:07;95654.84;;;9.43;50.16
37892;BME280;45797;47.466;9.486;2023-03-16T20:01:25;95658.09;;;9.34;49.92
37892;BME280;45797;47.466;9.486;2023-03-16T20:06:26;95648.69;;;9.32;50.20
37892;BME280;45797;47.466;9.486;2023-03-16T20:11:37;95647.13;;;9.29;49.30
37892;BME280;45797;47.466;9.486;2023-03-16T20:16:45;95632.38;;;9.28;49.85
37892;BME280;45797;47.466;9.486;2023-03-16T20:21:47;95640.56;;;9.24;50.09
37892;BME280;45797;47.466;9.486;2023-03-16T20:26:49;95648.63;;;9.21;50.31
37892;BME280;45797;47.466;9.486;2023-03-16T20:31:51;95648.91;;;9.16;50.05
37892;BME280;45797;47.466;9.486;2023-03-16T20:36:55;95633.47;;;9.13;50.29
37892;BME280;45797;47.466;9.486;2023-03-16T20:41:57;95629.38;;;9.09;50.39
37892;BME280;45797;47.466;9.486;2023-03-16T20:47:00;95623.94;;;9.12;50.09
37892;BME280;45797;47.466;9.486;2023-03-16T20:52:28;95622.91;;;9.02;49.93
37892;BME280;45797;47.466;9.486;2023-03-16T20:57:28;95627.19;;;9.03;49.79
37892;BME280;45797;47.466;9.486;2023-03-16T21:02:31;95621.44;;;8.98;50.05
37892;BME280;45797;47.466;9.486;2023-03-16T21:07:34;95627.41;;;8.87;50.63
37892;BME280;45797;47.466;9.486;2023-03-16T21:12:44;95622.50;;;8.82;50.40
37892;BME280;45797;47.466;9.486;2023-03-16T21:18:05;95623.13;;;8.73;50.48
37892;BME280;45797;47.466;9.486;2023-03-16T21:23:26;95618.91;;;8.71;50.64
37892;BME280;45797;47.466;9.486;2023-03-16T21:28:28;95620.69;;;8.70;50.62
37892;BME280;45797;47.466;9.486;2023-03-16T21:33:45;95638.56;;;8.64;51.22
37892;BME280;45797;47.466;9.486;2023-03-16T21:38:55;95635.63;;;8.55;51.30
37892;BME280;45797;47.466;9.486;2023-03-16T21:43:56;95629.88;;;8.50;50.84
37892;BME280;45797;47.466;9.486;2023-03-16T21:48:57;95627.75;;;8.43;51.33
37892;BME280;45797;47.466;9.486;2023-03-16T21:53:58;95622.88;;;8.38;51.13
37892;BME280;45797;47.466;9.486;2023-03-16T21:58:58;95614.47;;;8.33;51.43
37892;BME280;45797;47.466;9.486;2023-03-16T22:04:17;95610.72;;;8.24;51.76
37892;BME280;45797;47.466;9.486;2023-03-16T22:09:20;95605.28;;;8.27;51.99
37892;BME280;45797;47.466;9.486;2023-03-16T22:14:23;95590.66;;;8.25;51.77
37892;BME280;45797;47.466;9.486;2023-03-16T22:19:24;95601.41;;;8.20;52.30
37892;BME280;45797;47.466;9.486;2023-03-16T22:24:28;95598.78;;;8.20;51.97
37892;BME280;45797;47.466;9.486;2023-03-16T22:29:32;95605.06;;;8.18;52.27
37892;BME280;45797;47.466;9.486;2023-03-16T22:34:44;95603.56;;;8.14;52.69
37892;BME280;45797;47.466;9.486;2023-03-16T22:39:46;95600.13;;;8.13;52.62
37892;BME280;45797;47.466;9.486;2023-03-16T22:44:55;95602.94;;;8.10;52.24
37892;BME280;45797;47.466;9.486;2023-03-16T22:49:58;95598.56;;;8.11;52.36
37892;BME280;45797;47.466;9.486;2023-03-16T22:55:15;95597.09;;;8.07;52.72
37892;BME280;45797;47.466;9.486;2023-03-16T23:00:30;95595.50;;;8.04;52.71
37892;BME280;45797;47.466;9.486;2023-03-16T23:05:30;95592.06;;;8.03;52.28
37892;BME280;45797;47.466;9.486;2023-03-16T23:10:35;95579.78;;;8.06;52.46
37892;BME280;45797;47.466;9.486;2023-03-16T23:15:37;95572.88;;;8.05;52.78
37892;BME280;45797;47.466;9.486;2023-03-16T23:20:38;95570.38;;;8.03;52.58
37892;BME280;45797;47.466;9.486;2023-03-16T23:25:39;95578.28;;;8.01;52.71
37892;BME280;45797;47.466;9.486;2023-03-16T23:30:46;95574.34;;;7.96;52.64
37892;BME280;45797;47.466;9.486;2023-03-16T23:35:46;95570.25;;;7.92;53.47
37892;BME280;45797;47.466;9.486;2023-03-16T23:40:47;95560.00;;;7.89;53.21
37892;BME280;45797;47.466;9.486;2023-03-16T23:45:50;95562.81;;;7.86;53.04
37892;BME280;45797;47.466;9.486;2023-03-16T23:50:54;95562.06;;;7.84;53.28
37892;BME280;45797;47.466;9.486;2023-03-16T23:55:54;95558.84;;;7.80;53.27
